createdAt,value
2023-03-19T00:00:33.906Z,98221.19
2023-03-19T00:10:40.836Z,98219.84
2023-03-19T00:20:47.424Z,98216.00
2023-03-19T00:30:53.956Z,98209.47
2023-03-19T00:41:00.257Z,98206.38
2023-03-19T00:51:09.116Z,98199.88
2023-03-19T01:01:18.175Z,98192.19
2023-03-19T01:11:24.581Z,98183.84
2023-03-19T01:21:32.465Z,98179.63
2023-03-19T01:31:38.851Z,98169.59
2023-03-19T01:41:45.211Z,98145.06
2023-03-19T01:51:52.549Z,98128.47
2023-03-19T02:02:08.973Z,98105.47
2023-03-19T02:12:15.377Z,98078.41
2023-03-19T02:22:24.381Z,98046.84
2023-03-19T02:32:30.725Z,98017.22
2023-03-19T02:42:37.019Z,98002.66
2023-03-19T02:52:43.309Z,97987.38
2023-03-19T03:02:49.665Z,97976.84
2023-03-19T03:12:56.042Z,97969.25
2023-03-19T03:23:02.303Z,97969.56
2023-03-19T03:33:08.708Z,97973.41
2023-03-19T03:43:15.500Z,97979.63
2023-03-19T03:53:22.644Z,97978.28
2023-03-19T04:03:29.151Z,97986.06
2023-03-19T04:13:38.033Z,97989.59
2023-03-19T04:23:44.404Z,97993.28
2023-03-19T04:33:50.954Z,97990.41
2023-03-19T04:43:57.561Z,97982.47
2023-03-19T04:54:03.959Z,97972.81
2023-03-19T05:04:10.884Z,97961.38
2023-03-19T05:14:17.210Z,97953.25
2023-03-19T05:24:23.492Z,97933.81
2023-03-19T05:34:30.594Z,97927.81
2023-03-19T05:44:36.972Z,97931.78
2023-03-19T05:54:43.543Z,97937.91
2023-03-19T06:04:49.835Z,97966.75
2023-03-19T06:14:56.231Z,97991.84
2023-03-19T06:25:02.588Z,98020.03
2023-03-19T06:35:09.897Z,98045.72
2023-03-19T06:45:17.699Z,98068.94
2023-03-19T06:55:24.069Z,98093.34
2023-03-19T07:05:30.450Z,98113.16
2023-03-19T07:15:37.826Z,98125.19
2023-03-19T07:25:44.552Z,98138.69
2023-03-19T07:35:50.997Z,98141.34
2023-03-19T07:45:57.380Z,98148.13
2023-03-19T07:56:03.728Z,98161.84
2023-03-19T08:06:10.053Z,98175.75
2023-03-19T08:16:16.384Z,98194.75
2023-03-19T08:26:22.709Z,98208.22
2023-03-19T08:36:29.081Z,98225.03
2023-03-19T08:46:35.519Z,98246.34
2023-03-19T08:56:42.119Z,98262.03
2023-03-19T09:06:52.341Z,98279.25
2023-03-19T09:16:58.680Z,98292.66
2023-03-19T09:27:05.387Z,98306.75
2023-03-19T09:37:12.947Z,98314.28
2023-03-19T09:47:36.036Z,98327.16
2023-03-19T09:57:42.388Z,98329.41
2023-03-19T10:08:22.480Z,98325.09
2023-03-19T10:18:32.525Z,98325.16
2023-03-19T10:28:39.811Z,98322.59
2023-03-19T10:38:46.215Z,98317.09
2023-03-19T10:48:52.521Z,98315.03
2023-03-19T10:59:06.918Z,98309.69
2023-03-19T11:09:21.445Z,98302.37
2023-03-19T11:19:33.270Z,98296.63
2023-03-19T11:29:43.383Z,98288.41
2023-03-19T11:39:55.637Z,98277.38
2023-03-19T11:50:39.552Z,98280.56
2023-03-19T12:00:51.998Z,98272.44
2023-03-19T12:11:23.292Z,98262.22
2023-03-19T12:21:57.332Z,98252.88
2023-03-19T12:32:12.850Z,98243.66
2023-03-19T12:42:21.341Z,98237.59
2023-03-19T12:52:37.240Z,98233.50
2023-03-19T13:02:55.289Z,98227.22
2023-03-19T13:13:04.921Z,98222.03
2023-03-19T13:23:14.887Z,98214.91
2023-03-19T13:33:24.097Z,98211.25
2023-03-19T13:43:30.295Z,98203.72
2023-03-19T13:53:39.979Z,98194.25
2023-03-19T14:03:59.666Z,98186.13
2023-03-19T14:14:08.467Z,98176.97
2023-03-19T14:24:55.690Z,98162.34
2023-03-19T14:34:59.341Z,98156.91
2023-03-19T14:45:14.865Z,98143.63
2023-03-19T14:55:21.487Z,98141.37
2023-03-19T15:05:37.596Z,98135.78
2023-03-19T15:16:08.581Z,98133.13
2023-03-19T15:26:15.092Z,98131.19
2023-03-19T15:36:33.352Z,98124.69
2023-03-19T15:46:42.175Z,98120.00
2023-03-19T15:56:50.874Z,98117.97
2023-03-19T16:06:59.615Z,98112.25
2023-03-19T16:17:17.231Z,98112.03
2023-03-19T16:27:37.186Z,98108.78
2023-03-19T16:37:48.428Z,98110.81
2023-03-19T17:05:58.624Z,97958.31
